createdAt,value
2023-04-21T00:02:20.679Z,27.80
2023-04-21T00:04:49.735Z,25.40
2023-04-21T00:07:17.175Z,26.13
2023-04-21T00:09:44.334Z,25.30
2023-04-21T00:12:11.472Z,26.67
2023-04-21T00:14:40.029Z,25.87
2023-04-21T00:17:07.223Z,24.73
2023-04-21T00:19:35.289Z,23.80
2023-04-21T00:22:04.379Z,24.00
2023-04-21T00:24:31.564Z,38.93
2023-04-21T00:26:58.699Z,31.67
2023-04-21T00:29:25.873Z,29.93
2023-04-21T00:31:53.321Z,32.73
2023-04-21T00:34:20.636Z,31.03
2023-04-21T00:36:47.748Z,30.57
2023-04-21T00:39:14.906Z,29.63
2023-04-21T00:41:42.027Z,30.33
2023-04-21T00:44:09.345Z,28.73
2023-04-21T00:46:37.105Z,30.80
2023-04-21T00:49:05.083Z,31.17
2023-04-21T00:51:33.064Z,28.97
2023-04-21T00:54:00.303Z,29.80
2023-04-21T00:56:27.418Z,29.87
2023-04-21T00:58:54.548Z,26.57
2023-04-21T01:01:22.195Z,27.17
2023-04-21T01:03:50.285Z,27.27
2023-04-21T01:06:17.920Z,29.93
2023-04-21T01:08:46.670Z,30.43
2023-04-21T01:11:14.071Z,32.97
2023-04-21T01:13:41.284Z,44.03
2023-04-21T01:16:08.542Z,42.73
2023-04-21T01:18:36.945Z,44.83
2023-04-21T01:21:04.601Z,40.53
2023-04-21T01:23:31.777Z,38.83
2023-04-21T01:25:59.060Z,37.93
2023-04-21T01:28:26.483Z,40.67
2023-04-21T01:30:53.708Z,35.90
2023-04-21T01:33:20.900Z,33.50
2023-04-21T01:35:48.269Z,31.77
2023-04-21T01:38:19.508Z,31.03
2023-04-21T01:40:48.325Z,27.73
2023-04-21T01:43:15.933Z,27.73
2023-04-21T01:45:43.124Z,26.57
2023-04-21T01:48:10.632Z,31.17
2023-04-21T01:50:37.778Z,33.03
2023-04-21T01:53:04.918Z,39.20
2023-04-21T01:55:32.044Z,47.50
2023-04-21T01:57:59.542Z,42.23
2023-04-21T02:00:27.062Z,36.80
2023-04-21T02:02:54.318Z,33.00
2023-04-21T02:05:21.468Z,33.83
2023-04-21T02:07:48.682Z,33.07
2023-04-21T02:10:16.156Z,36.10
2023-04-21T02:12:43.341Z,34.70
2023-04-21T02:15:10.833Z,33.00
2023-04-21T02:17:38.324Z,32.17
2023-04-21T02:20:06.955Z,30.90
2023-04-21T02:22:34.093Z,29.87
2023-04-21T02:25:01.204Z,27.07
2023-04-21T02:27:28.355Z,26.97
2023-04-21T02:29:55.656Z,25.27
2023-04-21T02:32:25.791Z,23.23
2023-04-21T02:34:53.282Z,23.47
2023-04-21T02:37:21.068Z,31.83
2023-04-21T02:39:48.263Z,49.17
2023-04-21T02:42:15.367Z,45.90
2023-04-21T02:44:43.128Z,39.83
2023-04-21T02:47:10.557Z,41.53
2023-04-21T02:49:41.370Z,40.27
2023-04-21T02:52:08.531Z,38.03
2023-04-21T02:54:35.672Z,31.20
2023-04-21T02:57:03.265Z,37.40
2023-04-21T02:59:30.379Z,34.67
2023-04-21T03:01:57.494Z,32.87
2023-04-21T03:04:25.485Z,32.20
2023-04-21T03:06:53.188Z,28.93
2023-04-21T03:09:20.894Z,28.63
2023-04-21T03:11:48.153Z,29.30
2023-04-21T03:14:15.412Z,32.77
2023-04-21T03:16:42.588Z,30.13
2023-04-21T03:19:09.763Z,27.30
2023-04-21T03:21:40.093Z,26.27
2023-04-21T03:24:07.682Z,24.47
2023-04-21T03:26:34.829Z,24.63
2023-04-21T03:29:02.233Z,22.17
2023-04-21T03:31:29.435Z,23.23
2023-04-21T03:33:56.571Z,23.73
2023-04-21T03:36:23.718Z,22.33
2023-04-21T03:38:50.862Z,20.63
2023-04-21T03:41:18.074Z,21.23
2023-04-21T03:43:45.230Z,22.20
2023-04-21T03:46:22.007Z,22.30
2023-04-21T03:48:49.208Z,22.07
2023-04-21T03:51:16.347Z,21.33
2023-04-21T03:53:43.512Z,22.80
2023-04-21T03:56:10.649Z,25.63
2023-04-21T03:58:37.898Z,25.33
2023-04-21T04:01:08.157Z,25.00
2023-04-21T04:03:35.667Z,21.73
2023-04-21T04:06:04.145Z,22.17
2023-04-21T04:08:31.411Z,21.07
2023-04-21T04:10:58.567Z,20.77
2023-04-21T04:13:26.607Z,22.30
2023-04-21T04:15:54.017Z,21.20
2023-04-21T04:18:21.414Z,23.03
2023-04-21T04:20:48.537Z,24.07
2023-04-21T04:23:15.993Z,24.30
2023-04-21T04:25:43.379Z,25.50
2023-04-21T04:28:10.577Z,27.43
2023-04-21T04:30:37.778Z,27.20
2023-04-21T04:33:05.669Z,29.83
2023-04-21T04:35:32.858Z,29.77
2023-04-21T04:38:00.287Z,34.40
2023-04-21T04:40:28.727Z,30.17
2023-04-21T04:42:55.842Z,31.63
2023-04-21T04:45:22.996Z,30.53
2023-04-21T04:47:50.581Z,32.00
2023-04-21T04:50:17.765Z,32.70
2023-04-21T04:52:46.994Z,32.87
2023-04-21T04:55:14.515Z,32.77
2023-04-21T04:57:41.756Z,33.03
2023-04-21T05:00:11.512Z,30.83
2023-04-21T05:02:39.278Z,36.63
2023-04-21T05:05:07.359Z,38.13
2023-04-21T05:07:34.828Z,37.40
2023-04-21T05:10:04.172Z,41.13
2023-04-21T05:12:34.433Z,41.63
2023-04-21T05:15:01.549Z,46.70
2023-04-21T05:17:31.076Z,43.07
2023-04-21T05:19:58.377Z,40.00
2023-04-21T05:22:26.089Z,36.60
2023-04-21T05:24:53.633Z,39.40
2023-04-21T05:27:21.042Z,39.77
2023-04-21T05:29:48.164Z,41.00
2023-04-21T05:32:15.518Z,40.73
2023-04-21T05:34:42.681Z,39.33
2023-04-21T05:37:12.156Z,41.80
2023-04-21T05:39:39.380Z,42.17
2023-04-21T05:42:06.736Z,40.60
2023-04-21T05:44:33.867Z,40.97
2023-04-21T05:47:01.002Z,36.87
2023-04-21T05:49:28.149Z,29.95
2023-04-21T05:51:55.362Z,30.23
2023-04-21T05:54:22.492Z,23.27
2023-04-21T05:56:49.635Z,21.30
2023-04-21T05:59:16.760Z,20.35
2023-04-21T06:01:44.200Z,18.55
2023-04-21T06:04:11.571Z,17.50
2023-04-21T06:06:39.003Z,16.80
2023-04-21T06:09:07.910Z,15.80
2023-04-21T06:11:35.180Z,15.60
2023-04-21T06:14:02.330Z,15.80
2023-04-21T06:16:32.429Z,16.30
2023-04-21T06:18:59.642Z,20.40
2023-04-21T06:21:26.867Z,20.27
2023-04-21T06:23:53.998Z,21.63
2023-04-21T06:26:21.167Z,19.70
2023-04-21T06:28:48.385Z,20.77
2023-04-21T06:31:15.838Z,16.48
2023-04-21T06:33:43.145Z,13.82
2023-04-21T06:36:10.620Z,14.82
2023-04-21T06:38:39.997Z,13.32
2023-04-21T06:41:07.224Z,10.90
2023-04-21T06:43:34.339Z,10.20
2023-04-21T06:46:01.472Z,14.85
2023-04-21T06:48:29.937Z,12.77
2023-04-21T06:50:57.063Z,11.38
2023-04-21T06:53:24.207Z,10.25
2023-04-21T06:55:52.363Z,7.97
2023-04-21T06:58:21.141Z,7.20
2023-04-21T07:00:48.731Z,7.72
2023-04-21T07:03:16.062Z,9.75
2023-04-21T07:05:43.305Z,11.68
2023-04-21T07:08:10.541Z,9.07
2023-04-21T07:10:37.690Z,9.18
2023-04-21T07:13:04.913Z,10.02
2023-04-21T07:15:32.174Z,10.68
2023-04-21T07:17:59.322Z,18.40
2023-04-21T07:20:26.594Z,6.85
2023-04-21T07:22:53.806Z,7.53
2023-04-21T07:25:20.989Z,7.07
2023-04-21T07:27:48.107Z,5.50
2023-04-21T07:30:15.525Z,6.40
2023-04-21T07:32:43.003Z,6.60
2023-04-21T07:35:10.295Z,7.22
2023-04-21T07:37:37.468Z,8.40
2023-04-21T07:40:04.760Z,9.00
2023-04-21T07:42:31.887Z,6.53
2023-04-21T07:45:01.145Z,7.18
2023-04-21T07:47:28.361Z,7.22
2023-04-21T07:49:55.906Z,6.05
2023-04-21T07:52:23.084Z,24.38
2023-04-21T07:54:50.793Z,74.45
2023-04-21T07:57:17.952Z,14.70
2023-04-21T07:59:45.143Z,7.30
2023-04-21T08:02:12.303Z,5.95
2023-04-21T08:04:39.728Z,7.30
2023-04-21T08:07:07.095Z,6.88
2023-04-21T08:09:34.263Z,7.72
2023-04-21T08:12:02.274Z,5.32
2023-04-21T08:14:29.430Z,8.05
2023-04-21T08:16:57.176Z,4.90
2023-04-21T08:19:24.632Z,5.05
2023-04-21T08:21:51.850Z,8.02
2023-04-21T08:24:19.553Z,9.25
2023-04-21T08:26:46.994Z,7.03
2023-04-21T08:29:14.226Z,7.30
2023-04-21T08:31:41.505Z,4.97
2023-04-21T08:34:08.770Z,5.82
2023-04-21T08:36:36.044Z,5.72
2023-04-21T08:39:03.285Z,6.00
2023-04-21T08:41:30.652Z,7.82
2023-04-21T08:43:57.927Z,6.43
2023-04-21T08:46:25.249Z,6.22
2023-04-21T08:48:53.742Z,5.72
2023-04-21T08:51:23.851Z,5.60
2023-04-21T08:53:51.924Z,4.60
2023-04-21T08:56:19.209Z,5.60
2023-04-21T08:58:46.322Z,5.28
2023-04-21T09:01:13.522Z,5.70
2023-04-21T09:03:40.929Z,6.20
2023-04-21T09:06:09.745Z,8.15
2023-04-21T09:08:42.885Z,9.55
2023-04-21T09:11:10.184Z,5.32
2023-04-21T09:13:37.412Z,5.30
2023-04-21T09:16:08.186Z,6.85
2023-04-21T09:18:36.825Z,6.47
2023-04-21T09:21:07.919Z,6.50
2023-04-21T09:23:44.659Z,7.47
2023-04-21T09:26:11.868Z,5.65
2023-04-21T09:28:41.851Z,5.32
2023-04-21T09:31:21.745Z,5.03
2023-04-21T09:36:21.110Z,4.80
2023-04-21T09:39:20.559Z,5.35
2023-04-21T09:41:44.842Z,5.07
2023-04-21T09:44:12.037Z,7.10
2023-04-21T09:46:39.404Z,5.18
2023-04-21T09:49:06.964Z,6.57
2023-04-21T09:51:55.641Z,13.75
2023-04-21T09:56:53.727Z,7.45
2023-04-21T09:59:23.736Z,6.57
2023-04-21T10:01:50.950Z,6.22
2023-04-21T10:04:18.386Z,5.82
2023-04-21T10:06:46.251Z,6.38
2023-04-21T10:09:13.429Z,7.78
2023-04-21T10:11:41.066Z,5.82
2023-04-21T10:14:08.161Z,5.20
2023-04-21T10:16:38.176Z,5.80
2023-04-21T10:19:25.021Z,7.85
2023-04-21T10:21:52.151Z,6.22
2023-04-21T10:24:19.596Z,7.55
2023-04-21T10:26:47.602Z,6.95
2023-04-21T10:29:16.197Z,7.72
2023-04-21T10:31:52.876Z,6.45
2023-04-21T10:34:21.090Z,7.05
2023-04-21T10:37:00.148Z,8.43
2023-04-21T10:39:36.358Z,7.85
2023-04-21T10:42:24.474Z,7.38
2023-04-21T10:44:53.530Z,7.00
2023-04-21T10:47:34.511Z,6.72
2023-04-21T10:50:02.078Z,6.97
2023-04-21T10:52:35.965Z,6.20
2023-04-21T10:55:03.938Z,6.13
2023-04-21T10:57:34.531Z,6.97
2023-04-21T11:00:01.765Z,8.40
2023-04-21T11:02:29.029Z,12.40
2023-04-21T11:04:56.696Z,8.93
2023-04-21T11:07:24.392Z,8.57
2023-04-21T11:10:11.240Z,8.90
2023-04-21T11:12:38.962Z,8.25
2023-04-21T11:15:09.841Z,7.00
2023-04-21T11:17:39.241Z,7.00
2023-04-21T11:20:06.925Z,8.40
2023-04-21T11:22:34.266Z,9.95
2023-04-21T11:25:01.604Z,7.03
2023-04-21T11:27:29.482Z,6.88
2023-04-21T11:29:57.310Z,6.85
2023-04-21T11:32:24.556Z,6.80
2023-04-21T11:34:51.734Z,5.85
2023-04-21T11:37:27.040Z,5.80
2023-04-21T11:39:57.837Z,5.88
2023-04-21T11:42:25.011Z,5.53
2023-04-21T11:44:54.183Z,5.32
2023-04-21T11:47:22.076Z,5.15
2023-04-21T11:49:50.609Z,5.70
2023-04-21T11:52:21.592Z,10.10
2023-04-21T11:54:48.812Z,6.70
2023-04-21T11:57:19.141Z,6.82
2023-04-21T11:59:49.836Z,7.72
2023-04-21T12:02:27.325Z,7.88
2023-04-21T12:04:58.292Z,10.32
2023-04-21T12:07:25.654Z,11.77
2023-04-21T12:09:53.085Z,13.15
2023-04-21T12:12:20.297Z,13.02
2023-04-21T12:14:47.415Z,12.10
2023-04-21T12:17:14.829Z,8.10
2023-04-21T12:19:42.358Z,9.35
2023-04-21T12:22:13.178Z,6.22
2023-04-21T12:24:40.321Z,5.38
2023-04-21T12:27:07.782Z,5.65
2023-04-21T12:29:38.649Z,5.97
2023-04-21T12:32:06.763Z,6.18
2023-04-21T12:34:34.169Z,6.00
2023-04-21T12:37:01.302Z,6.50
2023-04-21T12:39:29.390Z,5.53
2023-04-21T12:41:57.721Z,7.55
2023-04-21T12:44:25.241Z,7.93
2023-04-21T12:46:52.839Z,6.30
2023-04-21T12:49:20.210Z,6.03
2023-04-21T12:51:47.409Z,5.90
2023-04-21T12:54:15.356Z,5.35
2023-04-21T12:56:43.154Z,7.22
2023-04-21T12:59:10.638Z,7.38
2023-04-21T13:01:38.227Z,7.70
2023-04-21T13:04:05.912Z,5.20
2023-04-21T13:06:33.768Z,20.73
2023-04-21T13:09:01.783Z,7.88
2023-04-21T13:11:28.999Z,5.93
2023-04-21T13:13:56.126Z,4.43
2023-04-21T13:16:23.319Z,5.45
2023-04-21T13:18:50.556Z,5.30
2023-04-21T13:21:17.699Z,3.80
2023-04-21T13:23:44.845Z,9.98
2023-04-21T13:26:12.024Z,5.57
2023-04-21T13:28:39.186Z,7.00
2023-04-21T13:31:07.177Z,5.75
2023-04-21T13:33:35.300Z,14.93
2023-04-21T13:36:03.324Z,4.90
2023-04-21T13:38:30.713Z,4.88
2023-04-21T13:40:57.940Z,6.43
2023-04-21T13:43:25.143Z,5.50
2023-04-21T13:45:52.473Z,5.80
2023-04-21T13:48:20.462Z,5.47
2023-04-21T13:50:47.796Z,5.53
2023-04-21T13:53:16.893Z,4.38
2023-04-21T13:55:45.341Z,5.03
2023-04-21T13:58:12.522Z,5.80
2023-04-21T14:00:39.755Z,5.60
2023-04-21T14:03:07.157Z,7.22
2023-04-21T14:05:34.593Z,6.80
2023-04-21T14:08:01.916Z,6.15
2023-04-21T14:10:29.103Z,14.55
2023-04-21T14:12:56.259Z,14.02
2023-04-21T14:15:23.439Z,10.60
2023-04-21T14:17:50.913Z,5.93
2023-04-21T14:20:18.118Z,4.97
2023-04-21T14:22:45.320Z,5.18
2023-04-21T14:25:12.505Z,5.07
2023-04-21T14:27:39.616Z,7.28
2023-04-21T14:30:07.120Z,12.38
2023-04-21T14:32:34.326Z,8.45
2023-04-21T14:35:03.442Z,6.15
2023-04-21T14:37:30.777Z,16.17
2023-04-21T14:39:57.976Z,6.93
2023-04-21T14:42:25.447Z,6.03
2023-04-21T14:44:52.732Z,6.03
2023-04-21T14:47:19.931Z,8.30
2023-04-21T14:49:47.294Z,4.60
2023-04-21T14:52:14.429Z,3.70
2023-04-21T14:54:41.717Z,5.90
2023-04-21T14:57:19.588Z,5.85
2023-04-21T14:59:51.561Z,5.28
2023-04-21T15:02:19.340Z,6.50
2023-04-21T15:04:46.729Z,7.45
2023-04-21T15:07:14.165Z,8.75
2023-04-21T15:09:45.628Z,5.82
2023-04-21T15:12:13.514Z,7.55
2023-04-21T15:14:40.868Z,7.30
2023-04-21T15:17:08.064Z,7.78
2023-04-21T15:19:35.584Z,7.40
2023-04-21T15:22:04.752Z,6.45
2023-04-21T15:24:31.878Z,8.52
2023-04-21T15:26:59.049Z,5.00
2023-04-21T15:29:26.273Z,4.65
2023-04-21T15:31:53.395Z,5.75
2023-04-21T15:34:20.643Z,5.07
2023-04-21T15:36:47.801Z,6.90
2023-04-21T15:39:14.981Z,7.45
2023-04-21T15:41:42.173Z,5.13
2023-04-21T15:44:09.306Z,13.25
2023-04-21T15:46:36.618Z,26.23
2023-04-21T15:49:03.840Z,15.77
2023-04-21T15:51:34.561Z,9.40
2023-04-21T15:54:01.740Z,13.63
2023-04-21T15:56:29.005Z,8.68
2023-04-21T15:58:56.824Z,6.40
2023-04-21T16:01:24.042Z,5.38
2023-04-21T16:03:51.662Z,5.53
2023-04-21T16:06:20.836Z,6.70
2023-04-21T16:08:48.099Z,7.90
2023-04-21T16:11:15.342Z,6.80
2023-04-21T16:13:42.472Z,6.57
2023-04-21T16:16:09.715Z,4.90
2023-04-21T16:18:36.980Z,4.28
2023-04-21T16:21:04.261Z,4.18
2023-04-21T16:23:31.566Z,3.72
2023-04-21T16:25:59.025Z,7.20
2023-04-21T16:28:26.149Z,3.60
2023-04-21T16:30:53.292Z,4.95
2023-04-21T16:33:20.774Z,5.22
2023-04-21T16:35:47.991Z,12.18
2023-04-21T16:38:15.216Z,10.15
2023-04-21T16:40:42.321Z,4.45
2023-04-21T16:43:09.462Z,4.95
2023-04-21T16:45:36.606Z,5.35
2023-04-21T16:48:03.992Z,5.50
2023-04-21T16:50:31.366Z,5.07
2023-04-21T16:52:58.491Z,12.10
2023-04-21T16:55:25.963Z,29.15
2023-04-21T16:57:53.088Z,11.25
2023-04-21T17:00:20.395Z,8.27
2023-04-21T17:02:47.646Z,9.68
2023-04-21T17:05:16.357Z,7.15
2023-04-21T17:07:44.954Z,7.35
2023-04-21T17:10:12.158Z,5.70
2023-04-21T17:12:39.422Z,5.35
2023-04-21T17:15:07.421Z,7.05
2023-04-21T17:17:42.414Z,5.32
2023-04-21T17:20:12.667Z,4.35
2023-04-21T17:22:40.104Z,4.60
2023-04-21T17:25:07.826Z,4.43
2023-04-21T17:27:36.021Z,11.65
2023-04-21T17:30:03.894Z,5.75
2023-04-21T17:32:33.425Z,7.35
2023-04-21T17:35:01.253Z,13.23
2023-04-21T17:37:29.540Z,9.73
2023-04-21T17:39:57.374Z,14.75
2023-04-21T17:42:25.786Z,26.40
2023-04-21T17:44:52.891Z,25.98
2023-04-21T17:47:20.036Z,27.75
2023-04-21T17:49:47.144Z,28.10
2023-04-21T17:52:16.252Z,32.58
2023-04-21T17:54:44.192Z,39.90
2023-04-21T17:57:11.928Z,35.60
2023-04-21T17:59:39.589Z,37.28
2023-04-21T18:02:06.793Z,33.28
2023-04-21T18:04:34.629Z,28.10
2023-04-21T18:07:02.127Z,26.65
2023-04-21T18:09:29.308Z,24.67
2023-04-21T18:11:57.030Z,24.77
2023-04-21T18:14:24.712Z,24.83
2023-04-21T18:16:51.903Z,22.77
2023-04-21T18:19:19.237Z,23.70
2023-04-21T18:21:46.471Z,23.05
2023-04-21T18:24:13.603Z,23.77
2023-04-21T18:26:40.761Z,24.58
2023-04-21T18:29:07.927Z,24.30
2023-04-21T18:31:35.134Z,25.38
2023-04-21T18:34:02.278Z,44.15
2023-04-21T18:36:32.337Z,34.53
2023-04-21T18:39:00.400Z,23.55
2023-04-21T18:41:27.823Z,23.95
2023-04-21T18:43:55.201Z,23.77
2023-04-21T18:46:22.430Z,27.70
2023-04-21T18:48:49.640Z,24.25
2023-04-21T18:51:16.778Z,33.05
2023-04-21T18:53:46.156Z,41.15
2023-04-21T18:56:13.292Z,34.13
2023-04-21T18:58:40.472Z,30.35
2023-04-21T19:01:08.037Z,24.55
2023-04-21T19:03:35.527Z,22.90
2023-04-21T19:06:02.932Z,19.67
2023-04-21T19:08:41.464Z,18.75
2023-04-21T19:11:10.301Z,18.25
2023-04-21T19:13:37.498Z,19.30
2023-04-21T19:16:05.187Z,18.42
2023-04-21T19:18:32.540Z,18.10
2023-04-21T19:20:59.696Z,20.83
2023-04-21T19:23:26.810Z,23.00
2023-04-21T19:25:56.127Z,23.75
2023-04-21T19:28:23.449Z,23.20
2023-04-21T19:30:50.669Z,21.73
2023-04-21T19:33:18.045Z,20.58
2023-04-21T19:35:45.689Z,19.85
2023-04-21T19:38:12.827Z,18.10
2023-04-21T19:40:42.152Z,18.25
2023-04-21T19:43:09.436Z,18.00
2023-04-21T19:45:37.560Z,17.60
2023-04-21T19:48:05.204Z,19.58
2023-04-21T19:50:34.739Z,21.70
2023-04-21T19:53:02.223Z,14.68
2023-04-21T19:55:29.390Z,16.55
2023-04-21T19:57:57.653Z,19.38
2023-04-21T20:00:25.133Z,18.42
2023-04-21T20:02:52.471Z,17.58
2023-04-21T20:05:19.856Z,18.73
2023-04-21T20:07:47.021Z,18.40
2023-04-21T20:10:14.183Z,19.85
2023-04-21T20:12:41.322Z,18.80
2023-04-21T20:15:08.754Z,19.38
2023-04-21T20:17:36.888Z,19.23
2023-04-21T20:20:05.659Z,17.95
2023-04-21T20:22:32.765Z,17.63
2023-04-21T20:24:59.919Z,18.15
2023-04-21T20:27:27.324Z,18.02
2023-04-21T20:29:54.451Z,20.23
2023-04-21T20:32:21.588Z,20.90
2023-04-21T20:34:48.715Z,19.10
2023-04-21T20:37:16.138Z,18.13
2023-04-21T20:39:43.246Z,19.05
2023-04-21T20:42:13.410Z,18.70
2023-04-21T20:44:42.463Z,18.50
2023-04-21T20:47:09.937Z,17.70
2023-04-21T20:49:37.487Z,17.70
2023-04-21T20:52:04.945Z,17.25
2023-04-21T20:54:34.481Z,17.88
2023-04-21T20:57:02.025Z,19.17
2023-04-21T20:59:29.159Z,20.13
2023-04-21T21:01:56.351Z,20.98
2023-04-21T21:04:23.810Z,18.70
2023-04-21T21:06:51.061Z,20.60
2023-04-21T21:09:19.029Z,17.85
2023-04-21T21:11:46.281Z,19.30
2023-04-21T21:14:13.502Z,19.33
2023-04-21T21:16:40.767Z,20.43
2023-04-21T21:19:07.971Z,19.60
2023-04-21T21:21:35.107Z,18.80
2023-04-21T21:24:02.277Z,18.53
2023-04-21T21:26:29.817Z,20.02
2023-04-21T21:28:57.201Z,19.20
2023-04-21T21:31:25.651Z,19.77
2023-04-21T21:33:52.941Z,19.70
2023-04-21T21:36:20.106Z,22.70
2023-04-21T21:38:47.197Z,21.80
2023-04-21T21:41:14.821Z,21.10
2023-04-21T21:43:41.945Z,22.00
2023-04-21T21:46:09.228Z,20.27
2023-04-21T21:48:36.411Z,21.67
2023-04-21T21:51:05.282Z,21.13
2023-04-21T21:53:32.785Z,25.77
2023-04-21T21:56:00.038Z,24.97
2023-04-21T21:58:27.384Z,24.30
2023-04-21T22:00:54.508Z,22.83
2023-04-21T22:03:22.041Z,27.93
2023-04-21T22:05:49.415Z,31.17
2023-04-21T22:08:16.617Z,26.67
2023-04-21T22:10:43.988Z,26.57
2023-04-21T22:13:11.145Z,27.00
2023-04-21T22:15:38.831Z,29.03
2023-04-21T22:18:07.167Z,27.13
2023-04-21T22:20:34.471Z,29.20
2023-04-21T22:23:01.613Z,29.53
2023-04-21T22:25:28.843Z,32.10
2023-04-21T22:27:59.027Z,33.40
2023-04-21T22:30:26.180Z,34.80
2023-04-21T22:32:53.457Z,34.33
2023-04-21T22:35:20.853Z,31.10
2023-04-21T22:37:48.018Z,30.90
2023-04-21T22:40:15.407Z,29.37
2023-04-21T22:42:42.893Z,27.60
2023-04-21T22:45:10.189Z,27.17
2023-04-21T22:47:37.421Z,28.53
2023-04-21T22:50:04.943Z,26.87
2023-04-21T22:52:32.146Z,28.40
2023-04-21T22:54:59.296Z,28.80
2023-04-21T22:57:26.937Z,28.80
2023-04-21T22:59:54.046Z,28.47
2023-04-21T23:02:21.662Z,29.33
2023-04-21T23:04:48.921Z,29.13
2023-04-21T23:07:16.060Z,31.00
2023-04-21T23:09:43.281Z,31.30
2023-04-21T23:12:10.377Z,33.67
2023-04-21T23:14:37.480Z,28.10
2023-04-21T23:17:04.753Z,29.70
2023-04-21T23:19:31.943Z,30.33
2023-04-21T23:21:59.030Z,33.03
2023-04-21T23:24:26.150Z,33.33
2023-04-21T23:26:53.274Z,33.03
2023-04-21T23:29:20.456Z,28.67
2023-04-21T23:31:47.673Z,30.63
2023-04-21T23:34:15.342Z,31.23
2023-04-21T23:36:43.593Z,31.27
2023-04-21T23:39:11.423Z,27.57
2023-04-21T23:41:38.596Z,26.40
2023-04-21T23:44:06.258Z,28.10
2023-04-21T23:46:33.466Z,26.40
2023-04-21T23:49:00.621Z,25.33
2023-04-21T23:51:28.222Z,25.13
2023-04-21T23:53:55.741Z,23.77
2023-04-21T23:56:22.887Z,23.60
2023-04-21T23:58:50.047Z,24.77
